Reggina

Lecce-Reggina 2-0, gli amaranto si piegano anche all’ex Baroni

Quarta sconfitta consecutiva per la Reggina, travolta quest’oggi al Via del Mare dal Lecce dell’ex Baroni. I salentini si impongono per due a zero, con una rete per tempo che portano la firma di...

Reggina-Ascoli, la match analysis dell’incontro

Altra sconfitta casalinga per la Reggina di Aglietti, che non vince nelle mura amiche da più di un mese quando ha battuto il Parma di Maresca (ormai esonerato), in generale è la quarta sconfitta...

Reggina, parla Taibi: “Da domani squadra in ritiro”

Dopo la sconfitta casalinga per mano dell'Ascoli ai microfoni della stampa si presenta il direttore sportivo Massimo Taibi; ecco le sue dichiarazioni rilasciate poco fa nella sala stampa del "Granillo": «E' una situazione particolare -...

Reggina-Ascoli 1-2, Sabiri manda in crisi gli amaranto

Altra sconfitta per la Reggina, la terza consecutiva, questa volta ad opera dell’Ascoli. Gli amaranto di Alfredo Aglietti cadono ancora al Granillo, aprendo una vera e propria crisi. L’Ascoli ha il merito di sbloccare...

Reggina, l’amarezza di Aglietti: “Approccio sbagliato”

Rammaricato per la sconfitta ma subito concentrato mister Aglietti sul prossimo match che vedrà gli amaranto contrapposti all'Ascoli dell'ex Sottil; le parole dell'allenatore amaranto dopo il 4-0 del "Vigorito": "Partita approcciata male, mentre il Benevento...
DataCasaRisultatiTrasfertaOra
2022-05-06 16:30:0006/05/22- 16:30:0016:30
2022-04-30 16:30:0030/04/22- 16:30:0016:30
2022-04-25 16:30:0025/04/22- 16:30:0016:30
2022-04-18 16:30:0018/04/22- 16:30:0016:30
2022-04-09 16:30:0009/04/22- 16:30:0016:30
2022-04-05 16:30:0005/04/22- 16:30:0016:30
2022-04-02 16:30:0002/04/22- 16:30:0016:30
2022-03-19 16:30:0019/03/22- 16:30:0016:30
2022-03-15 16:30:0015/03/22- 16:30:0016:30
2022-03-12 16:30:0012/03/22- 16:30:0016:30
2022-03-05 16:30:0005/03/22- 16:30:0016:30
2022-03-01 16:30:0001/03/22- 16:30:0016:30
2022-02-26 16:30:0026/02/22- 16:30:0016:30
2022-02-19 16:30:0019/02/22- 16:30:0016:30
2022-02-12 16:30:0012/02/22- 16:30:0016:30
2022-02-05 16:30:0005/02/22- 16:30:0016:30
2022-01-22 16:30:0022/01/22- 16:30:0016:30
2022-01-15 16:30:0015/01/22- 16:30:0016:30
2021-12-29 16:30:0029/12/21- 16:30:0016:30
2021-12-26 16:30:0026/12/21- 16:30:0016:30
2021-12-18 16:30:0018/12/21- 16:30:0016:30
2021-12-11 16:30:0011/12/21- 16:30:0016:30
2021-12-04 16:30:0004/12/212 - 0 16:30:0016:30
2021-11-30 16:30:0030/11/211 - 2 16:30:0016:30
2021-11-27 16:30:0027/11/214 - 0 16:30:0016:30
2021-11-20 16:30:0020/11/211 - 2 16:30:0016:30
2021-11-06 16:30:0006/11/210 - 1 16:30:0016:30
2021-11-01 16:30:0001/11/210 - 1 16:30:0016:30
2021-10-28 16:30:0028/10/210 - 2 16:30:0016:30
2021-10-23 16:30:0023/10/212 - 1 16:30:0016:30
2021-10-16 16:30:0016/10/210 - 1 16:30:0016:30
2021-10-02 16:15:0002/10/212 - 0 16:15:0016:15
2021-09-25 16:30:0025/09/210 - 0 16:30:0016:30
2021-09-21 16:30:0021/09/211 - 1 16:30:0016:30
2021-09-18 16:30:0018/09/212 - 1 16:30:0016:30
2021-09-11 16:30:0011/09/211 - 1 16:30:0016:30
2021-08-28 16:30:0028/08/213 - 2 16:30:0016:30
2021-08-21 16:30:0021/08/210 - 0 16:30:0016:30
2021-05-10 16:30:0010/05/210 - 4 16:30:0016:30
2021-05-07 16:30:0007/05/212 - 2 16:30:0016:30
2021-05-04 16:30:0004/05/212 - 2 16:30:0016:30
2021-05-01 16:30:0001/05/211 - 1 16:30:0016:30
2021-04-17 16:30:0017/04/212 - 1 16:30:0016:30
2021-04-10 16:30:0010/04/213 - 0 16:30:0016:30
2021-04-05 16:30:0005/04/211 - 1 16:30:0016:30
2021-04-01 16:30:0001/04/210 - 2 16:30:0016:30
2021-03-21 15:00:0021/03/211 - 1 15:00:0015:00
2021-03-16 16:30:0016/03/211 - 0 16:30:0016:30
2021-03-13 16:30:0013/03/211 - 0 16:30:0016:30
2021-03-06 14:00:0706/03/210 - 0 14:00:0714:00
2021-03-02 16:30:0002/03/210 - 3 16:30:0016:30
2021-02-27 16:30:0027/02/211 - 4 16:30:0016:30
2021-02-20 16:30:0020/02/211 - 0 16:30:0016:30
2021-02-15 21:00:0015/02/212 - 2 21:00:0021:00
2021-02-10 19:00:0010/02/211 - 0 19:00:0019:00
2021-02-06 16:30:0006/02/210 - 2 16:30:0016:30
2021-01-30 16:30:0030/01/210 - 0 16:30:0016:30
2021-01-23 16:30:0023/01/211 - 1 16:30:0016:30
2021-01-16 16:30:0016/01/210 - 1 16:30:0016:30
2021-01-04 16:30:0004/01/212 - 1 16:30:0016:30
2020-12-30 16:30:0030/12/201 - 0 16:30:0016:30
2020-12-27 16:30:0027/12/200 - 1 16:30:0016:30
2020-12-22 16:30:0022/12/201 - 1 16:30:0016:30
2020-12-19 16:30:0019/12/201 - 3 16:30:0016:30
2020-12-14 16:30:0014/12/201 - 2 16:30:0016:30
2020-12-12 16:30:0012/12/203 - 0 16:30:0016:30
2020-12-05 16:30:0005/12/202 - 1 16:30:0016:30
2020-11-28 16:30:0028/11/201 - 0 16:30:0016:30
2020-11-21 16:30:0021/11/201 - 2 16:30:0016:30
2020-11-07 16:30:0007/11/203 - 0 16:30:0016:30
2020-10-31 16:30:0031/10/200 - 1 16:30:0016:30
2020-10-24 16:30:0024/10/202 - 2 16:30:0016:30
2020-10-20 16:30:0020/10/200 - 0 16:30:0016:30
2020-10-17 16:30:0017/10/201 - 1 16:30:0016:30
2020-10-03 16:30:0003/10/203 - 1 16:30:0016:30
2020-09-26 16:30:0026/09/201 - 1 16:30:0016:30
2020-04-26 16:30:0026/04/20- 16:30:0016:30
2020-04-19 16:30:0019/04/20- 16:30:0016:30
2020-04-11 16:30:0011/04/20- 16:30:0016:30
2020-04-05 16:30:0005/04/20- 16:30:0016:30
2020-03-29 16:30:0029/03/20- 16:30:0016:30
2020-03-25 16:30:0025/03/20- 16:30:0016:30
2020-03-22 16:30:0022/03/20- 16:30:0016:30
2020-03-15 16:30:0015/03/20- 16:30:0016:30
2020-03-08 16:30:0008/03/200 - 2 16:30:0016:30
2020-03-01 16:30:0001/03/200 - 2 16:30:0016:30
2020-02-26 16:30:0026/02/200 - 1 16:30:0016:30
2020-02-23 16:30:0023/02/203 - 0 16:30:0016:30
2020-02-16 16:30:0016/02/200 - 0 16:30:0016:30
2020-02-09 16:30:0009/02/201 - 0 16:30:0016:30
2020-02-02 16:30:0002/02/200 - 1 16:30:0016:30
2020-01-26 16:30:0026/01/201 - 1 16:30:0016:30
2020-01-19 16:30:0019/01/201 - 2 16:30:0016:30
2020-01-12 16:30:0012/01/203 - 0 16:30:0016:30
2019-12-22 16:30:0022/12/191 - 2 16:30:0016:30
2019-12-15 16:30:0015/12/191 - 2 16:30:0016:30
2019-12-08 16:30:0008/12/191 - 0 16:30:0016:30
2019-12-01 16:30:0001/12/190 - 3 16:30:0016:30
2019-11-24 16:30:0024/11/194 - 1 16:30:0016:30
2019-11-17 16:30:0017/11/190 - 3 16:30:0016:30
2019-11-10 16:30:0010/11/192 - 0 16:30:0016:30
2019-11-03 16:30:0003/11/190 - 3 16:30:0016:30
2019-10-27 16:30:0027/10/191 - 2 16:30:0016:30
2019-10-23 20:30:0023/10/194 - 1 20:30:0020:30
2019-10-20 16:30:0020/10/191 - 2 16:30:0016:30
2019-10-12 20:45:0012/10/191 - 0 20:45:0020:45
2019-10-06 16:30:0006/10/191 - 1 16:30:0016:30
2019-09-29 16:30:0029/09/191 - 0 16:30:0016:30
2019-09-25 20:30:0025/09/191 - 1 20:30:0020:30
2019-09-22 16:30:0022/09/192 - 0 16:30:0016:30
2019-09-16 20:45:0016/09/191 - 1 20:45:0020:45
2019-09-08 15:00:0008/09/193 - 0 15:00:0015:00
2019-09-01 17:30:0001/09/195 - 1 17:30:0017:30
2019-08-25 16:30:0025/08/191 - 1 16:30:0016:30
2019-05-05 16:45:0005/05/193 - 0 16:45:0016:45
2019-04-28 16:45:0028/04/190 - 2 16:45:0016:45
2019-04-20 16:45:0020/04/191 - 0 16:45:0016:45
2019-04-14 16:45:0014/04/190 - 1 16:45:0016:45
2019-04-07 16:45:0007/04/190 - 1 16:45:0016:45
2019-03-31 16:45:0031/03/191 - 0 16:45:0016:45
2019-03-24 15:45:0024/03/193 - 0 15:45:0015:45
2019-03-10 15:45:0010/03/190 - 0 15:45:0015:45
2019-03-03 15:45:0003/03/191 - 1 15:45:0015:45
2019-02-24 15:45:0024/02/191 - 0 15:45:0015:45
2019-02-17 15:45:0017/02/191 - 0 15:45:0015:45
2019-02-13 15:45:0013/02/190 - 0 15:45:0015:45
2019-02-10 15:45:0010/02/190 - 2 15:45:0015:45
2019-02-03 15:45:0003/02/193 - 4 15:45:0015:45
2019-01-27 15:45:0027/01/191 - 1 15:45:0015:45
2019-01-23 15:45:0023/01/193 - 1 15:45:0015:45
2019-01-20 15:45:0020/01/190 - 1 15:45:0015:45
2018-12-30 15:45:0030/12/181 - 1 15:45:0015:45
2018-12-26 15:45:0026/12/180 - 6 15:45:0015:45
2018-12-23 15:45:0023/12/182 - 0 15:45:0015:45
2018-12-16 15:45:0016/12/180 - 1 15:45:0015:45
2018-12-12 15:45:0012/12/180 - 3 15:45:0015:45
2018-12-09 15:45:0009/12/181 - 2 15:45:0015:45
2018-12-02 15:45:0002/12/183 - 2 15:45:0015:45
2018-11-25 15:45:0025/11/181 - 0 15:45:0015:45
2018-11-11 15:45:0011/11/181 - 0 15:45:0015:45
2018-11-04 15:45:0004/11/183 - 2 15:45:0015:45
2018-10-28 15:45:0028/10/181 - 1 15:45:0015:45
2018-10-21 16:45:0021/10/180 - 1 16:45:0016:45
2018-10-17 16:45:0017/10/181 - 1 16:45:0016:45
2018-10-14 16:45:0014/10/181 - 0 16:45:0016:45
2018-10-07 16:45:0007/10/181 - 0 16:45:0016:45
2018-09-30 16:45:0030/09/181 - 3 16:45:0016:45
2018-09-26 16:45:0026/09/181 - 1 16:45:0016:45
2018-09-22 16:45:0022/09/181 - 0 16:45:0016:45
2018-09-18 20:30:0018/09/183 - 0 20:30:0020:30
2018-05-06 20:30:0006/05/181 - 1 20:30:0020:30
2018-04-29 20:30:0029/04/181 - 1 20:30:0020:30
2018-04-22 20:30:0022/04/182 - 0 20:30:0020:30
2018-04-15 20:30:0015/04/181 - 2 20:30:0020:30
2018-04-08 20:30:0008/04/180 - 1 20:30:0020:30
2018-03-25 20:30:0025/03/180 - 0 20:30:0020:30
2018-03-21 20:30:0021/03/182 - 1 20:30:0020:30
2018-03-18 20:30:0018/03/182 - 1 20:30:0020:30
2018-03-11 20:30:0011/03/181 - 2 20:30:0020:30
2018-03-04 20:30:0004/03/180 - 0 20:30:0020:30
2018-02-25 20:30:0025/02/181 - 2 20:30:0020:30
2018-02-18 20:30:0018/02/180 - 0 20:30:0020:30
2018-02-11 20:30:0011/02/180 - 0 20:30:0020:30
2018-02-04 20:30:0004/02/180 - 0 20:30:0020:30
2018-01-28 20:30:0028/01/181 - 1 20:30:0020:30
2018-01-21 20:30:0021/01/181 - 0 20:30:0020:30
2017-12-30 20:30:0030/12/170 - 1 20:30:0020:30
2017-12-23 20:30:0023/12/170 - 3 20:30:0020:30
2017-12-17 20:30:0017/12/172 - 1 20:30:0020:30
2017-12-10 20:30:0010/12/170 - 3 20:30:0020:30
2017-12-03 16:30:0003/12/171 - 0 16:30:0016:30
2017-11-25 16:30:0025/11/170 - 0 16:30:0016:30
2017-11-18 20:30:0018/11/173 - 2 20:30:0020:30
2017-11-08 20:30:0008/11/170 - 2 20:30:0020:30
2017-11-04 18:30:0004/11/170 - 0 18:30:0018:30
2017-10-29 20:30:0029/10/172 - 1 20:30:0020:30
2017-10-21 14:30:0021/10/171 - 1 14:30:0014:30
2017-10-14 16:30:0014/10/172 - 0 16:30:0016:30
2017-10-08 18:30:0008/10/173 - 0 18:30:0018:30
2017-10-04 20:30:0004/10/170 - 1 20:30:0020:30
2017-10-01 20:30:0001/10/171 - 1 20:30:0020:30
2017-09-24 20:30:0024/09/170 - 1 20:30:0020:30
2017-09-17 20:30:0017/09/171 - 1 20:30:0020:30
2017-09-10 20:30:0010/09/171 - 1 20:30:0020:30
2017-09-03 20:30:0003/09/172 - 1 20:30:0020:30
2017-08-26 20:30:0026/08/171 - 0 20:30:0020:30